createdAt,value
2019-03-12T00:02:08.991Z,6.30
2019-03-12T00:07:15.015Z,6.20
2019-03-12T00:12:20.988Z,6.30
2019-03-12T00:17:27.041Z,6.30
2019-03-12T00:22:32.992Z,6.20
2019-03-12T00:27:41.091Z,6.30
2019-03-12T00:32:47.284Z,6.30
2019-03-12T00:37:53.313Z,6.20
2019-03-12T00:42:59.367Z,6.20
2019-03-12T00:48:05.399Z,6.30
2019-03-12T00:53:11.478Z,6.20
2019-03-12T00:58:17.513Z,6.30
2019-03-12T01:03:23.460Z,6.30
2019-03-12T01:08:29.564Z,6.30
2019-03-12T01:13:35.523Z,6.30
2019-03-12T01:18:41.546Z,6.40
2019-03-12T01:23:47.605Z,6.30
2019-03-12T01:28:53.642Z,6.30
2019-03-12T01:33:59.744Z,6.30
2019-03-12T01:39:07.382Z,6.30
2019-03-12T01:44:14.593Z,6.20
2019-03-12T01:49:20.640Z,6.30
2019-03-12T01:54:26.633Z,6.30
2019-03-12T01:59:32.585Z,6.30
2019-03-12T02:04:38.522Z,6.20
2019-03-12T02:09:44.478Z,6.20
2019-03-12T02:14:50.519Z,6.20
2019-03-12T02:19:56.537Z,6.20
2019-03-12T02:25:02.498Z,6.30
2019-03-12T02:30:11.095Z,6.20
2019-03-12T02:35:18.424Z,6.20
2019-03-12T02:40:24.518Z,6.20
2019-03-12T02:45:30.497Z,6.20
2019-03-12T02:50:36.622Z,6.20
2019-03-12T02:55:42.566Z,6.20
2019-03-12T03:00:48.612Z,6.20
2019-03-12T03:06:01.262Z,6.20
2019-03-12T03:11:07.388Z,6.20
2019-03-12T03:16:13.486Z,6.20
2019-03-12T03:21:19.519Z,6.30
2019-03-12T03:26:25.572Z,6.30
2019-03-12T03:31:31.599Z,6.30
2019-03-12T03:36:37.733Z,6.30
2019-03-12T03:41:43.827Z,6.30
2019-03-12T03:46:50.012Z,6.30
2019-03-12T03:51:56.282Z,6.30
2019-03-12T03:57:02.377Z,6.30
2019-03-12T04:02:08.457Z,6.40
2019-03-12T04:07:14.511Z,6.40
2019-03-12T04:12:20.549Z,6.40
2019-03-12T04:17:26.649Z,6.40
2019-03-12T04:22:32.694Z,6.40
2019-03-12T04:27:38.780Z,6.40
2019-03-12T04:32:44.941Z,6.50
2019-03-12T04:37:51.010Z,6.50
2019-03-12T04:42:57.151Z,6.50
2019-03-12T04:48:03.151Z,6.60
2019-03-12T04:53:09.368Z,6.60
2019-03-12T04:58:15.422Z,6.60
2019-03-12T05:03:21.413Z,6.70
2019-03-12T05:08:27.503Z,6.70
2019-03-12T05:13:33.541Z,6.70
2019-03-12T05:18:39.582Z,6.70
2019-03-12T05:23:45.555Z,6.70
2019-03-12T05:28:51.631Z,6.70
2019-03-12T05:33:57.602Z,6.60
2019-03-12T05:39:05.051Z,6.60
2019-03-12T05:44:12.501Z,6.70
2019-03-12T05:49:18.509Z,6.70
2019-03-12T05:54:24.554Z,6.70
2019-03-12T05:59:30.509Z,6.80
2019-03-12T06:04:36.490Z,6.80
2019-03-12T06:09:43.497Z,6.80
2019-03-12T06:14:49.465Z,6.80
2019-03-12T06:19:55.470Z,6.90
2019-03-12T06:25:01.443Z,6.90
2019-03-12T06:30:08.757Z,6.90
2019-03-12T06:35:45.733Z,6.90
2019-03-12T06:41:09.522Z,6.90
2019-03-12T06:46:37.540Z,6.90
2019-03-12T06:52:01.409Z,7.00
2019-03-12T06:57:13.752Z,7.00
2019-03-12T07:02:39.917Z,7.10
2019-03-12T07:07:56.719Z,7.10
2019-03-12T07:13:27.893Z,7.10
2019-03-12T07:18:43.912Z,7.20
2019-03-12T07:24:05.692Z,7.20
2019-03-12T07:29:36.262Z,7.30
2019-03-12T07:34:58.975Z,7.30
2019-03-12T07:40:30.151Z,7.40
2019-03-12T07:45:45.241Z,7.40
2019-03-12T07:51:04.916Z,7.40
2019-03-12T07:56:28.498Z,7.50
2019-03-12T08:01:49.940Z,7.50
2019-03-12T08:07:13.740Z,7.50
2019-03-12T08:12:26.399Z,7.60
2019-03-12T08:17:51.597Z,7.60
2019-03-12T08:23:15.403Z,7.70
2019-03-12T08:28:36.135Z,7.70
2019-03-12T08:34:01.747Z,7.70
2019-03-12T08:39:26.825Z,7.80
2019-03-12T08:44:49.576Z,7.70
2019-03-12T08:50:14.644Z,7.80
2019-03-12T08:55:51.957Z,7.90
2019-03-12T09:01:17.989Z,7.90
2019-03-12T09:06:39.942Z,7.90
2019-03-12T09:12:10.770Z,7.90
2019-03-12T09:17:45.069Z,7.90
2019-03-12T09:22:58.564Z,8.00
2019-03-12T09:28:32.954Z,8.00
2019-03-12T09:33:58.447Z,8.20
2019-03-12T09:39:14.045Z,8.20
2019-03-12T09:44:36.295Z,8.20
2019-03-12T09:49:47.258Z,8.30
2019-03-12T09:54:58.092Z,8.30
2019-03-12T10:00:20.089Z,8.50
2019-03-12T10:05:38.792Z,8.50
2019-03-12T10:11:10.122Z,8.70
2019-03-12T10:16:37.436Z,8.80
2019-03-12T10:21:55.265Z,8.80
2019-03-12T10:27:08.531Z,8.80
2019-03-12T10:32:20.331Z,8.80
2019-03-12T10:37:41.582Z,8.70
2019-03-12T10:43:11.590Z,8.80
2019-03-12T10:48:17.766Z,8.80
2019-03-12T10:53:23.847Z,8.80
2019-03-12T10:58:29.959Z,8.80
2019-03-12T11:03:36.054Z,8.90
2019-03-12T11:08:42.158Z,8.80
2019-03-12T11:13:48.286Z,8.90
2019-03-12T11:18:54.461Z,8.90
2019-03-12T11:24:00.773Z,8.90
2019-03-12T11:29:06.836Z,8.90
2019-03-12T11:34:12.965Z,9.00
2019-03-12T11:39:19.130Z,9.10
2019-03-12T11:44:25.256Z,9.10
2019-03-12T11:49:31.550Z,9.20
2019-03-12T11:54:37.834Z,9.20
2019-03-12T11:59:43.989Z,9.20
2019-03-12T12:04:50.138Z,9.20
2019-03-12T12:09:56.323Z,9.30
2019-03-12T12:15:02.466Z,9.30
2019-03-12T12:20:09.244Z,9.20
2019-03-12T12:25:15.504Z,9.20
2019-03-12T12:30:21.900Z,9.30
2019-03-12T12:35:27.932Z,9.20
2019-03-12T12:40:34.085Z,9.20
2019-03-12T12:45:40.439Z,9.20
2019-03-12T12:50:46.652Z,9.30
2019-03-12T12:55:52.862Z,9.40
2019-03-12T13:00:59.101Z,9.40
2019-03-12T13:06:05.344Z,9.40
2019-03-12T13:11:11.651Z,9.50
2019-03-12T13:16:24.959Z,9.50
2019-03-12T13:21:25.666Z,9.40
2019-03-12T13:26:32.112Z,9.40
2019-03-12T13:31:47.499Z,9.40
2019-03-12T13:36:53.805Z,9.40
2019-03-12T13:42:00.270Z,9.50
2019-03-12T13:47:06.817Z,9.40
2019-03-12T13:52:12.981Z,9.40
2019-03-12T13:57:19.343Z,9.40
2019-03-12T14:02:25.747Z,9.40
2019-03-12T14:07:31.922Z,9.50
2019-03-12T14:12:39.440Z,9.50
2019-03-12T14:17:45.608Z,9.60
2019-03-12T14:22:51.746Z,9.60
2019-03-12T14:27:57.902Z,9.60
2019-03-12T14:33:04.036Z,9.70
2019-03-12T14:38:10.798Z,9.70
2019-03-12T14:43:16.896Z,9.60
2019-03-12T14:49:02.977Z,9.40
2019-03-12T14:54:09.264Z,9.30
2019-03-12T14:59:15.511Z,9.30
2019-03-12T15:04:21.766Z,9.40
2019-03-12T15:09:27.888Z,9.50
2019-03-12T15:14:33.972Z,9.50
2019-03-12T15:19:40.158Z,9.50
2019-03-12T15:24:46.426Z,9.50
2019-03-12T15:29:52.588Z,9.50
2019-03-12T15:34:58.646Z,9.50
2019-03-12T15:40:06.090Z,9.60
2019-03-12T15:45:12.314Z,9.60
2019-03-12T15:50:19.639Z,9.60
2019-03-12T15:55:25.874Z,9.60
2019-03-12T16:00:32.124Z,9.50
2019-03-12T16:05:38.380Z,9.50
2019-03-12T16:10:56.922Z,9.40
2019-03-12T16:15:52.429Z,9.40
2019-03-12T16:20:58.554Z,9.40
2019-03-12T16:26:04.806Z,9.50
2019-03-12T16:31:10.958Z,9.50
2019-03-12T16:36:17.254Z,9.50
2019-03-12T16:41:23.354Z,9.50
2019-03-12T16:46:31.353Z,9.60
2019-03-12T16:51:37.813Z,9.70
2019-03-12T16:56:45.536Z,9.60
2019-03-12T17:01:51.845Z,9.50
2019-03-12T17:07:01.239Z,9.40
2019-03-12T17:12:07.502Z,9.30
2019-03-12T17:17:14.826Z,9.20
2019-03-12T17:22:21.237Z,9.20
2019-03-12T17:27:27.262Z,9.10
2019-03-12T17:32:33.545Z,9.10
2019-03-12T17:37:40.919Z,9.00
2019-03-12T17:42:47.113Z,8.90
2019-03-12T17:47:54.719Z,8.90
2019-03-12T17:53:00.813Z,8.80
2019-03-12T17:58:06.974Z,8.80
2019-03-12T18:03:13.082Z,8.70
2019-03-12T18:08:21.158Z,8.70
2019-03-12T18:13:28.964Z,8.70
2019-03-12T18:18:35.329Z,8.60
2019-03-12T18:23:41.390Z,8.40
2019-03-12T18:28:47.508Z,8.00
2019-03-12T18:33:53.672Z,7.90
2019-03-12T18:39:03.109Z,7.30
2019-03-12T18:44:09.038Z,7.00
2019-03-12T18:49:15.156Z,6.60
2019-03-12T18:54:21.347Z,6.70
2019-03-12T18:59:27.334Z,6.50
2019-03-12T19:04:33.354Z,6.30
2019-03-12T19:09:39.469Z,6.20
2019-03-12T19:14:45.493Z,6.20
2019-03-12T19:19:51.639Z,6.10
2019-03-12T19:24:57.830Z,6.10
2019-03-12T19:30:04.215Z,6.10
2019-03-12T19:35:12.492Z,6.10
2019-03-12T19:40:19.548Z,6.00
2019-03-12T19:45:25.660Z,6.10
2019-03-12T19:50:31.709Z,6.20
2019-03-12T19:55:40.927Z,6.20
2019-03-12T20:00:48.646Z,6.10
2019-03-12T20:05:54.708Z,6.00
2019-03-12T20:11:50.986Z,6.20
2019-03-12T20:17:43.724Z,6.20
2019-03-12T20:23:35.358Z,6.30
2019-03-12T20:29:17.498Z,6.10
2019-03-12T20:35:19.145Z,6.10
2019-03-12T20:41:08.124Z,6.20
2019-03-12T20:46:52.033Z,6.20
2019-03-12T20:52:47.719Z,6.20
2019-03-12T20:58:35.137Z,6.20
2019-03-12T21:04:40.829Z,6.40
2019-03-12T21:10:31.208Z,6.40
2019-03-12T21:16:08.858Z,6.30
2019-03-12T21:22:03.196Z,6.40
2019-03-12T21:27:31.950Z,6.40
2019-03-12T21:32:38.100Z,6.50
2019-03-12T21:37:45.235Z,6.50
2019-03-12T21:42:51.303Z,6.50
2019-03-12T21:47:57.350Z,6.60
2019-03-12T21:53:04.467Z,6.60
2019-03-12T21:58:10.774Z,6.60
2019-03-12T22:03:16.861Z,6.70
2019-03-12T22:08:25.270Z,6.70
2019-03-12T22:13:30.763Z,6.70
2019-03-12T22:18:36.934Z,6.70
2019-03-12T22:23:46.311Z,6.70
2019-03-12T22:28:52.373Z,6.80
2019-03-12T22:33:58.473Z,6.70
2019-03-12T22:39:06.347Z,6.70
2019-03-12T22:44:12.454Z,6.70
2019-03-12T22:49:18.333Z,6.70
2019-03-12T22:54:43.493Z,6.80
2019-03-12T22:59:49.481Z,6.90
2019-03-12T23:05:13.767Z,7.00
2019-03-12T23:10:38.202Z,7.00
2019-03-12T23:15:46.318Z,7.10
2019-03-12T23:20:52.494Z,7.10
2019-03-12T23:26:00.210Z,7.10
2019-03-12T23:31:07.672Z,7.10
2019-03-12T23:36:13.827Z,7.00
2019-03-12T23:41:20.252Z,7.10
2019-03-12T23:46:26.762Z,7.10
2019-03-12T23:51:32.991Z,7.10
2019-03-12T23:56:40.352Z,7.00
